Time;durP1;ratioP1;P1;durP2;ratioP2;P2;SDS_P1;SDS_P2;PMS_P1;PMS_P2;Temp;Humidity;BMP_temperature;BMP_pressure;BME280_temperature;BME280_humidity;BME280_pressure;Samples;Min_cycle;Max_cycle;Signal;HPM_P1;HPM_P2
2021/09/24 00:01:37;;;;;;;4.75;4.28;;;;;;;15.66;69.89;100661.13;5004291;28;20566;-76
2021/09/24 00:04:02;;;;;;;5.13;4.60;;;;;;;15.67;69.91;100674.53;5008657;28;20762;-76
2021/09/24 00:06:28;;;;;;;6.57;4.60;;;;;;;15.67;69.74;100671.81;4988390;28;20425;-77
2021/09/24 00:08:53;;;;;;;6.37;4.73;;;;;;;15.66;69.79;100670.16;5013599;28;20393;-76
2021/09/24 00:11:18;;;;;;;5.87;4.23;;;;;;;15.63;69.77;100672.59;5013646;28;20409;-76
2021/09/24 00:13:43;;;;;;;5.70;4.40;;;;;;;15.65;69.85;100668.50;5013704;28;20882;-76
2021/09/24 00:16:09;;;;;;;5.37;4.47;;;;;;;15.65;69.71;100671.22;4994743;28;20477;-76
2021/09/24 00:18:34;;;;;;;5.23;4.47;;;;;;;15.63;69.67;100670.69;5010722;28;20409;-76
2021/09/24 00:21:00;;;;;;;5.13;4.63;;;;;;;15.62;70.02;100671.78;4998614;28;20390;-76
2021/09/24 00:23:25;;;;;;;5.03;4.63;;;;;;;15.62;69.69;100677.25;5010786;28;20409;-76
2021/09/24 00:25:51;;;;;;;5.28;4.60;;;;;;;15.58;69.67;100668.78;5013116;28;20413;-76
2021/09/24 00:28:16;;;;;;;6.80;4.63;;;;;;;15.55;70.33;100661.13;4990194;28;20434;-76
2021/09/24 00:30:41;;;;;;;5.00;4.57;;;;;;;15.60;69.97;100664.97;5006465;28;20413;-76
2021/09/24 00:33:07;;;;;;;5.07;4.67;;;;;;;15.59;69.78;100664.13;5006659;28;20436;-76
2021/09/24 00:35:32;;;;;;;5.10;4.70;;;;;;;15.58;70.04;100666.03;5013496;28;20401;-76
2021/09/24 00:37:57;;;;;;;4.17;3.97;;;;;;;15.55;70.12;100665.75;5004571;28;20477;-76
2021/09/24 00:40:23;;;;;;;5.93;5.37;;;;;;;15.55;70.38;100654.84;5007194;28;20447;-76
2021/09/24 00:42:48;;;;;;;6.00;4.90;;;;;;;15.53;70.49;100652.41;5010687;28;20892;-76
2021/09/24 00:45:13;;;;;;;6.33;4.50;;;;;;;15.54;70.35;100653.22;5009543;28;20411;-76
2021/09/24 00:47:38;;;;;;;5.57;5.13;;;;;;;15.50;70.50;100647.47;4995408;28;20438;-76
2021/09/24 00:50:06;;;;;;;5.47;4.97;;;;;;;15.45;70.56;100652.88;5009802;28;20408;-76
2021/09/24 00:52:32;;;;;;;4.97;4.65;;;;;;;15.43;70.95;100651.53;5011501;28;20421;-76
2021/09/24 00:54:57;;;;;;;6.07;5.13;;;;;;;15.44;71.17;100653.97;5012800;28;21118;-76
2021/09/24 00:57:23;;;;;;;5.40;4.90;;;;;;;15.41;71.30;100657.25;4986452;28;20409;-76
2021/09/24 00:59:50;;;;;;;7.27;4.80;;;;;;;15.40;71.38;100647.44;5001778;28;20406;-76
2021/09/24 01:02:16;;;;;;;5.47;5.03;;;;;;;15.40;71.28;100649.34;4990429;28;20405;-76
2021/09/24 01:04:41;;;;;;;8.90;5.60;;;;;;;15.39;71.49;100647.69;4995340;28;20397;-77
2021/09/24 01:07:07;;;;;;;5.07;4.60;;;;;;;15.41;71.44;100654.53;5012880;28;20775;-76
2021/09/24 01:09:33;;;;;;;5.57;5.18;;;;;;;15.42;71.49;100649.88;5012773;28;20718;-76
2021/09/24 01:12:00;;;;;;;5.45;4.95;;;;;;;15.40;71.67;100646.63;5000638;28;20421;-77
2021/09/24 01:14:29;;;;;;;7.22;5.55;;;;;;;15.35;71.60;100643.88;5009957;28;20393;-76
2021/09/24 01:16:56;;;;;;;8.00;5.10;;;;;;;15.29;71.71;100642.22;5012564;28;20964;-76
2021/09/24 01:19:21;;;;;;;5.60;5.07;;;;;;;15.25;72.06;100641.13;5012715;28;20764;-76
2021/09/24 01:21:47;;;;;;;5.93;5.40;;;;;;;15.22;72.32;100645.22;5010729;28;20416;-77
2021/09/24 01:24:12;;;;;;;5.85;4.95;;;;;;;15.26;72.49;100642.78;5009564;28;20412;-76
2021/09/24 01:26:46;;;;;;;9.10;6.10;;;;;;;15.29;72.43;100640.31;4994331;28;20456;-76
2021/09/24 01:29:11;;;;;;;8.15;5.38;;;;;;;15.31;72.58;100648.25;4999451;28;20756;-77
2021/09/24 01:31:36;;;;;;;6.50;5.40;;;;;;;15.28;72.55;100638.66;5010473;28;20432;-76
2021/09/24 01:34:01;;;;;;;6.77;6.10;;;;;;;15.25;72.83;100639.22;5008398;28;20415;-77
2021/09/24 01:36:27;;;;;;;6.07;5.47;;;;;;;15.22;72.97;100628.84;4997888;28;20459;-76
2021/09/24 01:38:52;;;;;;;6.83;5.80;;;;;;;15.20;73.00;100631.03;5010024;28;20503;-76
2021/09/24 01:41:17;;;;;;;6.50;5.80;;;;;;;15.20;72.88;100635.66;4999245;28;20403;-76
2021/09/24 01:43:42;;;;;;;10.27;5.60;;;;;;;15.19;72.92;100632.13;5010432;28;20463;-76
2021/09/24 01:46:10;;;;;;;6.23;5.60;;;;;;;15.19;73.17;100632.13;5012273;28;20413;-76
2021/09/24 01:48:35;;;;;;;6.68;5.95;;;;;;;15.16;73.05;100629.09;5012039;28;20421;-77
2021/09/24 01:51:00;;;;;;;7.23;5.83;;;;;;;15.10;73.20;100631.00;5012137;28;20436;-76
2021/09/24 01:53:26;;;;;;;6.77;5.80;;;;;;;15.09;73.33;100632.09;4993307;28;20416;-76
2021/09/24 01:55:52;;;;;;;6.40;5.80;;;;;;;15.08;73.04;100631.28;5010526;28;20432;-77
2021/09/24 01:58:17;;;;;;;6.80;6.05;;;;;;;15.10;73.51;100635.66;5010012;28;20454;-76
2021/09/24 02:00:43;;;;;;;6.67;6.07;;;;;;;15.10;73.48;100633.75;4994361;28;20392;-76
2021/09/24 02:03:08;;;;;;;6.30;5.80;;;;;;;15.10;73.47;100636.47;5007741;28;20816;-76
2021/09/24 02:05:33;;;;;;;6.50;5.70;;;;;;;15.12;73.06;100633.47;5009563;28;20574;-76
2021/09/24 02:07:58;;;;;;;6.27;5.70;;;;;;;15.13;72.42;100630.47;4998143;28;20397;-76
2021/09/24 02:10:24;;;;;;;6.60;6.00;;;;;;;15.13;72.28;100629.66;5011939;28;20384;-76
2021/09/24 02:12:49;;;;;;;6.50;5.83;;;;;;;15.08;72.54;100628.53;5003740;28;20527;-76
2021/09/24 02:15:15;;;;;;;6.63;5.80;;;;;;;15.03;72.47;100630.44;5011165;28;20737;-76
2021/09/24 02:17:41;;;;;;;8.05;6.40;;;;;;;15.00;72.29;100633.72;5011712;28;20396;-76
2021/09/24 02:20:07;;;;;;;7.22;6.53;;;;;;;14.98;72.74;100627.72;5008903;28;20400;-76
2021/09/24 02:22:33;;;;;;;9.35;6.72;;;;;;;14.95;72.78;100633.72;5010774;28;20401;-76
2021/09/24 02:24:58;;;;;;;7.25;6.68;;;;;;;14.90;73.08;100626.34;4991431;28;20405;-76
2021/09/24 02:27:23;;;;;;;8.83;7.17;;;;;;;14.89;73.03;100632.03;5011254;28;20896;-76
2021/09/24 02:29:49;;;;;;;8.23;7.43;;;;;;;14.85;72.95;100626.31;5010855;28;20397;-76
2021/09/24 02:32:14;;;;;;;7.73;6.97;;;;;;;14.79;73.15;100623.81;5008185;28;20404;-76
2021/09/24 02:34:39;;;;;;;10.27;7.20;;;;;;;14.72;73.41;100624.09;5007074;28;20413;-76
2021/09/24 02:37:05;;;;;;;7.20;6.50;;;;;;;14.72;73.54;100624.09;5010755;28;20517;-76
2021/09/24 02:39:30;;;;;;;8.80;6.37;;;;;;;14.77;73.43;100621.38;5011267;28;20389;-76
2021/09/24 02:41:56;;;;;;;7.93;7.13;;;;;;;14.76;73.33;100627.91;5006176;28;20404;-76
2021/09/24 02:44:21;;;;;;;7.40;6.70;;;;;;;14.74;73.23;100635.56;5010047;28;20419;-76
2021/09/24 02:46:47;;;;;;;7.97;7.27;;;;;;;14.70;73.81;100629.00;5010697;28;20424;-76
2021/09/24 02:49:12;;;;;;;7.23;6.57;;;;;;;14.70;73.86;100628.19;5011104;28;20517;-76
2021/09/24 02:51:37;;;;;;;7.60;6.90;;;;;;;14.74;73.27;100627.38;5010602;28;20420;-76
2021/09/24 02:54:03;;;;;;;7.63;7.03;;;;;;;14.75;73.06;100629.00;5014120;28;20475;-76
2021/09/24 02:56:28;;;;;;;7.40;6.70;;;;;;;14.75;73.12;100622.75;5010600;28;20462;-76
2021/09/24 02:58:54;;;;;;;7.70;6.80;;;;;;;14.73;73.17;100630.38;5015337;28;20396;-76
2021/09/24 03:01:19;;;;;;;9.03;7.20;;;;;;;14.74;72.85;100632.84;5010958;28;20397;-76
2021/09/24 03:03:44;;;;;;;11.27;7.40;;;;;;;14.71;72.74;100630.66;5012590;28;20405;-76
2021/09/24 03:06:10;;;;;;;8.97;6.87;;;;;;;14.67;73.04;100635.00;5014753;28;20412;-76
2021/09/24 03:08:35;;;;;;;8.33;7.43;;;;;;;14.69;73.11;100634.72;5013957;28;20404;-76
2021/09/24 03:11:00;;;;;;;10.77;7.20;;;;;;;14.67;73.08;100635.00;5014949;28;20947;-76
2021/09/24 03:13:26;;;;;;;9.13;7.77;;;;;;;14.57;73.72;100631.41;5012308;28;20436;-76
2021/09/24 03:15:51;;;;;;;11.50;8.60;;;;;;;14.45;73.89;100637.09;5015119;28;20396;-76
2021/09/24 03:18:16;;;;;;;9.40;8.13;;;;;;;14.35;74.53;100631.59;5009758;28;20413;-76
2021/09/24 03:20:42;;;;;;;10.00;8.63;;;;;;;14.32;74.60;100632.09;5009285;28;20421;-76
2021/09/24 03:23:07;;;;;;;12.07;8.00;;;;;;;14.23;75.10;100628.19;4989269;28;20413;-76
2021/09/24 03:25:33;;;;;;;10.67;8.33;;;;;;;14.22;75.06;100629.31;5014704;28;20404;-76
2021/09/24 03:27:58;;;;;;;9.02;8.13;;;;;;;14.18;75.63;100631.75;4998805;28;20461;-76
2021/09/24 03:30:24;;;;;;;8.73;7.83;;;;;;;14.25;75.22;100634.22;5009644;28;20889;-76
2021/09/24 03:32:50;;;;;;;9.88;8.20;;;;;;;14.34;75.09;100624.47;4992203;28;20411;-76
2021/09/24 03:35:15;;;;;;;9.23;7.95;;;;;;;14.36;74.92;100627.75;5008289;28;20440;-76
2021/09/24 03:37:40;;;;;;;9.43;7.93;;;;;;;14.40;74.61;100624.25;5014608;28;20547;-78
2021/09/24 03:40:06;;;;;;;10.65;8.45;;;;;;;14.44;74.14;100630.00;5008229;28;20870;-76
2021/09/24 03:42:32;;;;;;;10.18;8.20;;;;;;;14.44;74.16;100621.81;5011816;28;20409;-77
2021/09/24 03:44:57;;;;;;;10.50;8.57;;;;;;;14.45;74.29;100624.28;5013699;28;20415;-78
2021/09/24 03:47:22;;;;;;;8.93;8.13;;;;;;;14.45;74.14;100626.19;5014248;28;20413;-77
2021/09/24 03:49:48;;;;;;;11.53;8.13;;;;;;;14.45;74.08;100624.28;5000450;28;20428;-77
2021/09/24 03:52:13;;;;;;;10.10;8.87;;;;;;;14.47;73.93;100624.81;5012027;28;20401;-77
2021/09/24 03:54:39;;;;;;;14.00;12.40;;;;;;;14.42;74.36;100626.72;5013519;28;20429;-77
2021/09/24 03:57:04;;;;;;;11.32;10.20;;;;;;;14.37;74.63;100627.50;5013778;28;20854;-77
2021/09/24 03:59:30;;;;;;;11.07;8.97;;;;;;;14.36;74.82;100622.31;5010871;28;20815;-77
2021/09/24 04:01:55;;;;;;;10.27;8.77;;;;;;;14.38;74.46;100622.88;5012815;28;20451;-78
2021/09/24 04:04:20;;;;;;;15.10;9.00;;;;;;;14.40;74.14;100634.31;5009871;28;20907;-77
2021/09/24 04:06:46;;;;;;;11.98;8.98;;;;;;;14.37;74.35;100630.22;5013597;28;20891;-77
2021/09/24 04:09:12;;;;;;;10.47;8.33;;;;;;;14.34;74.28;100625.31;5004200;28;20504;-77
2021/09/24 04:11:38;;;;;;;10.65;8.82;;;;;;;14.32;74.43;100635.63;5013957;28;20411;-77
2021/09/24 04:14:04;;;;;;;10.07;8.97;;;;;;;14.31;74.63;100633.16;5020465;28;20404;-77
2021/09/24 04:16:29;;;;;;;12.55;8.63;;;;;;;14.28;74.69;100636.44;5013923;28;20388;-77
2021/09/24 04:18:55;;;;;;;9.07;7.83;;;;;;;14.27;74.51;100638.31;5002667;28;20773;-77
2021/09/24 04:21:20;;;;;;;9.53;8.30;;;;;;;14.25;74.79;100631.50;4996808;28;20413;-77
2021/09/24 04:23:45;;;;;;;9.00;7.20;;;;;;;14.21;74.53;100633.13;4998312;28;20512;-77
2021/09/24 04:26:11;;;;;;;9.27;7.70;;;;;;;14.19;74.88;100621.66;5003578;28;20452;-77
2021/09/24 04:28:36;;;;;;;10.80;7.37;;;;;;;14.22;75.13;100632.03;5011762;28;20419;-77
2021/09/24 04:31:02;;;;;;;9.00;7.73;;;;;;;14.23;75.03;100628.19;5000528;28;20488;-77
2021/09/24 04:33:27;;;;;;;8.68;7.82;;;;;;;14.23;74.97;100620.84;5013396;28;20418;-77
2021/09/24 04:35:52;;;;;;;9.32;7.38;;;;;;;14.22;74.90;100630.13;5009787;28;20487;-77
2021/09/24 04:38:18;;;;;;;9.27;7.73;;;;;;;14.21;74.74;100624.94;5012020;28;20760;-77
2021/09/24 04:40:43;;;;;;;8.97;7.80;;;;;;;14.15;75.09;100621.38;5013281;28;20393;-77
2021/09/24 04:43:08;;;;;;;9.02;7.38;;;;;;;14.17;75.43;100629.25;5010191;28;20431;-77
2021/09/24 04:45:35;;;;;;;9.73;8.00;;;;;;;14.15;75.12;100623.28;5013390;28;20413;-77
2021/09/24 04:48:00;;;;;;;8.07;7.30;;;;;;;14.12;75.08;100630.06;5012609;28;20433;-77
2021/09/24 04:50:25;;;;;;;8.40;7.67;;;;;;;14.10;75.15;100636.84;5013162;28;20401;-77
2021/09/24 04:52:51;;;;;;;9.85;8.23;;;;;;;14.06;75.09;100633.03;5019777;28;20454;-75
2021/09/24 04:55:16;;;;;;;27.20;21.50;;;;;;;14.05;75.28;100629.50;4994746;28;20420;-77
2021/09/24 04:57:41;;;;;;;10.32;8.52;;;;;;;14.05;74.91;100637.66;5011617;28;20429;-78
2021/09/24 05:00:10;;;;;;;8.87;7.73;;;;;;;14.03;75.05;100635.19;5010808;28;20927;-78
2021/09/24 05:02:36;;;;;;;9.63;8.63;;;;;;;14.02;75.14;100636.28;5009510;28;20417;-78
2021/09/24 05:05:01;;;;;;;11.00;8.40;;;;;;;14.01;75.33;100645.53;5007757;28;20765;-78
2021/09/24 05:07:26;;;;;;;12.20;8.63;;;;;;;13.96;75.46;100639.25;5008414;28;20427;-77
2021/09/24 05:09:52;;;;;;;11.77;8.43;;;;;;;13.89;76.21;100644.09;5004853;28;20766;-78
2021/09/24 05:12:17;;;;;;;12.73;9.60;;;;;;;13.87;76.23;100638.06;5013387;28;20504;-79
2021/09/24 05:14:43;;;;;;;11.63;9.30;;;;;;;13.87;76.20;100644.34;5010583;28;20421;-77
2021/09/24 05:17:08;;;;;;;9.80;8.80;;;;;;;13.79;76.61;100641.31;5011574;28;20393;-77
2021/09/24 05:19:33;;;;;;;11.50;8.53;;;;;;;13.72;76.66;100646.16;5006613;28;20396;-77
2021/09/24 05:21:59;;;;;;;9.90;8.90;;;;;;;13.70;77.14;100643.66;5011971;28;20404;-77
2021/09/24 05:24:24;;;;;;;11.32;8.95;;;;;;;13.68;76.80;100645.03;5008493;28;20437;-77
2021/09/24 05:26:50;;;;;;;10.27;8.60;;;;;;;13.67;76.98;100640.66;5012538;28;20502;-78
2021/09/24 05:29:15;;;;;;;10.97;9.00;;;;;;;13.66;76.80;100649.91;5012064;28;20544;-77
2021/09/24 05:31:41;;;;;;;11.53;10.00;;;;;;;13.70;77.14;100640.94;4997514;28;20398;-78
2021/09/24 05:34:06;;;;;;;12.30;9.27;;;;;;;13.76;76.88;100633.66;5003875;28;20411;-78
2021/09/24 05:36:32;;;;;;;11.13;9.40;;;;;;;13.79;76.60;100636.69;5013580;28;20397;-79
2021/09/24 05:38:57;;;;;;;12.47;9.33;;;;;;;13.78;76.76;100629.59;5011135;28;20413;-77
2021/09/24 05:41:23;;;;;;;12.90;9.48;;;;;;;13.75;76.98;100629.28;5007713;28;20479;-77
2021/09/24 05:43:50;;;;;;;12.27;9.32;;;;;;;13.74;77.13;100624.91;5009003;28;20397;-76
2021/09/24 05:46:19;;;;;;;11.95;10.10;;;;;;;13.74;77.20;100628.44;5009025;28;20887;-76
2021/09/24 05:48:45;;;;;;;12.35;10.65;;;;;;;13.82;76.81;100630.72;5001649;28;20488;-76
2021/09/24 05:51:10;;;;;;;13.15;10.48;;;;;;;13.80;77.20;100634.75;5009787;28;20419;-76
2021/09/24 05:53:35;;;;;;;12.68;10.60;;;;;;;13.80;77.03;100637.47;5005433;28;20401;-76
2021/09/24 05:56:01;;;;;;;13.27;10.13;;;;;;;13.79;77.48;100635.84;5011794;28;20424;-76
2021/09/24 05:58:27;;;;;;;12.38;10.30;;;;;;;13.85;77.30;100641.06;5006433;28;20920;-76
2021/09/24 06:00:52;;;;;;;11.18;10.05;;;;;;;13.80;77.22;100629.31;5008064;28;20451;-75
2021/09/24 06:03:17;;;;;;;11.30;9.73;;;;;;;13.84;77.27;100635.88;5011535;28;20401;-76
2021/09/24 06:05:43;;;;;;;10.87;9.77;;;;;;;13.85;77.41;100641.06;5009340;28;20815;-76
2021/09/24 06:08:08;;;;;;;11.40;10.20;;;;;;;13.85;77.40;100642.97;5010266;28;20950;-76
2021/09/24 06:10:34;;;;;;;10.85;9.63;;;;;;;13.86;77.07;100644.63;5010180;28;20883;-76
2021/09/24 06:12:59;;;;;;;13.27;10.50;;;;;;;13.89;77.25;100639.47;5011803;28;20439;-76
2021/09/24 06:15:26;;;;;;;12.57;10.13;;;;;;;13.88;77.31;100642.44;5011668;28;20884;-75
2021/09/24 06:17:52;;;;;;;11.87;10.20;;;;;;;13.96;77.31;100644.69;5009944;28;20405;-76
2021/09/24 06:20:18;;;;;;;10.47;9.43;;;;;;;14.03;76.76;100646.09;4990970;28;20412;-76
2021/09/24 06:22:45;;;;;;;10.45;9.55;;;;;;;14.05;76.94;100640.38;5009565;28;20396;-76
2021/09/24 06:25:11;;;;;;;11.00;9.70;;;;;;;14.14;76.57;100643.44;5006688;28;20757;-76
2021/09/24 06:27:37;;;;;;;11.57;10.00;;;;;;;14.32;76.00;100643.00;5010110;28;20515;-76
2021/09/24 06:30:05;;;;;;;12.13;9.67;;;;;;;14.36;75.75;100646.84;5009106;28;20491;-76
2021/09/24 06:32:30;;;;;;;10.82;9.82;;;;;;;14.41;75.81;100647.72;4993946;28;20392;-76
2021/09/24 06:34:56;;;;;;;11.27;10.07;;;;;;;14.42;75.49;100651.25;5003146;28;20400;-76
2021/09/24 06:37:21;;;;;;;12.87;10.33;;;;;;;14.32;75.94;100653.91;5001199;28;20491;-76
2021/09/24 06:39:47;;;;;;;13.03;10.53;;;;;;;14.21;76.08;100663.91;5010129;28;20408;-76
2021/09/24 06:42:13;;;;;;;12.48;10.00;;;;;;;14.19;76.30;100666.09;5010724;28;20420;-75
2021/09/24 06:44:39;;;;;;;12.15;10.45;;;;;;;14.21;76.46;100665.81;5011902;28;20748;-75
2021/09/24 06:47:05;;;;;;;11.40;10.20;;;;;;;14.10;76.79;100656.75;5010417;28;20485;-75
2021/09/24 06:49:30;;;;;;;11.77;10.57;;;;;;;14.13;77.21;100652.72;5005291;28;20437;-75
2021/09/24 06:51:58;;;;;;;13.03;10.30;;;;;;;14.10;77.01;100661.38;5010532;28;20923;-75
2021/09/24 06:54:25;;;;;;;12.88;10.77;;;;;;;14.12;77.19;100660.06;5009699;28;20534;-75
2021/09/24 06:56:51;;;;;;;12.97;10.83;;;;;;;14.20;77.45;100661.44;5010722;28;20726;-75
2021/09/24 06:59:16;;;;;;;12.17;10.87;;;;;;;14.28;77.15;100667.22;5009649;28;20415;-75
2021/09/24 07:01:43;;;;;;;12.50;11.20;;;;;;;14.33;77.04;100658.25;5009835;28;20814;-74
2021/09/24 07:04:08;;;;;;;12.25;10.90;;;;;;;14.37;77.36;100665.69;4992975;28;20397;-75
2021/09/24 07:06:34;;;;;;;12.23;11.00;;;;;;;14.44;77.31;100665.44;5011185;28;20792;-75
2021/09/24 07:08:59;;;;;;;12.40;11.10;;;;;;;14.51;77.08;100668.75;5004174;28;20406;-75
2021/09/24 07:11:25;;;;;;;12.93;10.80;;;;;;;14.55;77.48;100658.97;5002300;28;20424;-75
2021/09/24 07:13:51;;;;;;;15.23;11.47;;;;;;;14.57;77.45;100662.22;5010312;28;20417;-75
2021/09/24 07:16:16;;;;;;;13.67;11.87;;;;;;;14.53;77.64;100661.94;5009026;28;20401;-75
2021/09/24 07:18:41;;;;;;;15.40;11.95;;;;;;;14.57;77.97;100662.22;4997594;28;20408;-75
2021/09/24 07:21:07;;;;;;;12.70;11.47;;;;;;;14.61;77.96;100657.06;5010085;28;20401;-75
2021/09/24 07:23:32;;;;;;;13.83;12.07;;;;;;;14.69;77.40;100660.09;4999548;28;20774;-75
2021/09/24 07:25:57;;;;;;;15.53;12.50;;;;;;;14.74;77.49;100660.13;5010688;28;20775;-76
2021/09/24 07:28:23;;;;;;;12.73;11.43;;;;;;;14.83;77.38;100663.13;5011049;28;20396;-75
2021/09/24 07:30:48;;;;;;;14.95;11.25;;;;;;;14.92;77.35;100669.72;5007633;28;20401;-75
2021/09/24 07:33:13;;;;;;;15.63;12.60;;;;;;;14.96;77.24;100670.81;5011092;28;20389;-75
2021/09/24 07:35:38;;;;;;;14.60;11.87;;;;;;;15.02;77.21;100677.94;5001739;28;20501;-75
2021/09/24 07:38:04;;;;;;;14.27;11.20;;;;;;;15.04;77.17;100686.69;5008502;28;20472;-75
2021/09/24 07:40:29;;;;;;;13.45;11.90;;;;;;;15.10;77.05;100684.78;5002500;28;20539;-76
2021/09/24 07:42:55;;;;;;;12.70;11.03;;;;;;;15.17;77.03;100683.44;5014365;28;20397;-75
2021/09/24 07:45:21;;;;;;;13.25;11.75;;;;;;;15.21;76.91;100678.25;5014594;28;20397;-75
2021/09/24 07:47:47;;;;;;;14.25;11.48;;;;;;;15.18;77.21;100676.88;4994401;28;20907;-76
2021/09/24 07:50:12;;;;;;;18.17;12.20;;;;;;;15.16;77.51;100675.50;4982423;28;20409;-75
2021/09/24 07:52:38;;;;;;;13.13;11.77;;;;;;;15.19;77.40;100680.44;5012912;28;20416;-74
2021/09/24 07:55:05;;;;;;;12.98;11.68;;;;;;;15.21;77.30;100679.09;5014311;28;20948;-74
2021/09/24 07:57:30;;;;;;;12.37;11.07;;;;;;;15.18;77.21;100682.34;5002614;28;20480;-74
2021/09/24 07:59:55;;;;;;;13.90;10.67;;;;;;;15.25;76.94;100679.34;5009936;28;20869;-74
2021/09/24 08:02:21;;;;;;;13.03;10.90;;;;;;;15.32;77.33;100677.19;4995631;28;20405;-76
2021/09/24 08:04:46;;;;;;;12.60;10.27;;;;;;;15.38;76.94;100685.09;5013723;28;20436;-75
2021/09/24 08:07:13;;;;;;;11.95;10.82;;;;;;;15.42;76.73;100685.38;5013201;28;20424;-76
2021/09/24 08:09:38;;;;;;;11.87;9.93;;;;;;;15.52;76.62;100688.16;5005502;28;20447;-76
2021/09/24 08:12:04;;;;;;;11.83;10.57;;;;;;;15.59;76.33;100683.25;4992925;28;20843;-76
2021/09/24 08:14:30;;;;;;;14.77;10.70;;;;;;;15.67;76.07;100690.91;5014021;28;20393;-76
2021/09/24 08:16:55;;;;;;;11.60;10.50;;;;;;;15.71;75.96;100697.47;4998576;28;20399;-76
2021/09/24 08:19:20;;;;;;;10.83;9.50;;;;;;;15.75;75.43;100695.00;5010724;28;20401;-76
2021/09/24 08:21:45;;;;;;;11.43;10.32;;;;;;;15.79;75.07;100691.47;5012275;28;20504;-76
2021/09/24 08:24:11;;;;;;;11.37;10.23;;;;;;;15.87;75.01;100696.34;5008492;28;20461;-76
2021/09/24 08:26:36;;;;;;;9.83;8.83;;;;;;;15.89;74.75;100690.63;5006548;28;20410;-76
2021/09/24 08:29:01;;;;;;;9.35;8.48;;;;;;;15.93;74.38;100698.03;5013650;28;20897;-76
2021/09/24 08:31:29;;;;;;;11.30;9.47;;;;;;;15.99;74.42;100698.84;5009951;28;20405;-76
2021/09/24 08:33:56;;;;;;;9.65;8.60;;;;;;;16.05;74.45;100692.25;5010567;28;20416;-77
2021/09/24 08:36:21;;;;;;;11.63;8.93;;;;;;;16.13;74.28;100694.44;5012541;28;20436;-76
2021/09/24 08:38:46;;;;;;;10.90;8.53;;;;;;;16.15;74.20;100688.69;5011246;28;20444;-76
2021/09/24 08:41:12;;;;;;;9.70;8.77;;;;;;;16.20;73.92;100685.97;5002971;28;20430;-77
2021/09/24 08:43:39;;;;;;;8.50;7.70;;;;;;;16.27;73.60;100683.75;5009682;28;20405;-75
2021/09/24 08:46:04;;;;;;;9.35;8.45;;;;;;;16.37;73.84;100694.66;5005944;28;20634;-76
2021/09/24 08:48:30;;;;;;;9.20;8.30;;;;;;;16.43;73.52;100688.88;5013370;28;20955;-76
2021/09/24 08:50:55;;;;;;;8.85;7.60;;;;;;;16.50;72.55;100691.34;5012633;28;20455;-76
2021/09/24 08:53:22;;;;;;;8.30;7.43;;;;;;;16.54;72.52;100692.41;5011669;28;20412;-76
2021/09/24 08:55:48;;;;;;;8.98;7.75;;;;;;;16.60;72.44;100694.06;5005733;28;20416;-76
2021/09/24 08:58:15;;;;;;;8.40;7.60;;;;;;;16.65;72.32;100688.59;5013551;28;20479;-75
2021/09/24 09:00:43;;;;;;;8.68;7.88;;;;;;;16.70;72.39;100695.94;5003878;28;20470;-76
2021/09/24 09:03:14;;;;;;;7.15;6.50;;;;;;;16.73;71.88;100687.22;5006322;28;20420;-76
2021/09/24 09:05:54;;;;;;;9.73;7.85;;;;;;;16.85;71.61;100691.25;5011608;28;20420;-76
2021/09/24 09:08:23;;;;;;;7.30;6.68;;;;;;;16.95;71.00;100690.38;5010649;28;20411;-76
2021/09/24 09:10:59;;;;;;;8.90;6.70;;;;;;;17.01;71.38;100684.59;5009555;28;20471;-76
2021/09/24 09:13:33;;;;;;;8.82;7.93;;;;;;;17.13;71.17;100687.00;5000495;28;20887;-76
2021/09/24 09:16:06;;;;;;;9.15;6.97;;;;;;;17.27;70.01;100684.44;5010209;28;20408;-75
2021/09/24 09:18:37;;;;;;;9.38;7.28;;;;;;;17.34;70.11;100682.22;5006532;28;20384;-76
2021/09/24 09:21:08;;;;;;;11.10;6.70;;;;;;;17.47;69.63;100679.66;5011552;28;20401;-76
2021/09/24 09:23:36;;;;;;;10.95;8.02;;;;;;;17.59;68.27;100682.88;4999275;28;20418;-76
2021/09/24 09:26:05;;;;;;;8.02;7.10;;;;;;;17.77;68.04;100686.03;5004298;28;20405;-76
2021/09/24 09:28:48;;;;;;;7.65;6.93;;;;;;;17.94;67.88;100689.19;5008757;28;20478;-76
2021/09/24 09:31:42;;;;;;;9.55;6.85;;;;;;;18.05;67.05;100693.44;5008487;28;20403;-76
2021/09/24 09:34:41;;;;;;;8.30;7.35;;;;;;;18.31;65.54;100681.13;5007031;28;20500;-76
2021/09/24 09:37:17;;;;;;;7.45;6.85;;;;;;;18.60;65.01;100681.13;5027678;28;20409;-76
2021/09/24 09:39:43;;;;;;;7.30;6.47;;;;;;;18.83;63.48;100677.53;4978368;28;20897;-76
2021/09/24 09:42:08;;;;;;;12.82;8.00;;;;;;;19.33;62.74;100684.25;5007512;28;20490;-76
2021/09/24 09:44:35;;;;;;;9.47;7.60;;;;;;;19.97;60.70;100679.97;5007526;28;20495;-76
2021/09/24 09:47:00;;;;;;;7.03;5.57;;;;;;;20.78;57.09;100670.97;4984143;28;20433;-76
2021/09/24 09:49:28;;;;;;;9.83;6.37;;;;;;;21.35;54.87;100671.41;5010117;28;20408;-76
2021/09/24 09:52:11;;;;;;;6.25;5.63;;;;;;;21.63;54.47;100664.69;5011552;28;20463;-76
2021/09/24 09:54:36;;;;;;;6.10;5.60;;;;;;;21.78;54.32;100672.56;5009023;28;20768;-76
2021/09/24 09:57:18;;;;;;;6.78;5.70;;;;;;;22.10;53.60;100674.25;5007834;28;20478;-76
2021/09/24 09:59:52;;;;;;;5.32;4.82;;;;;;;22.42;52.63;100662.91;5005068;28;20485;-77
2021/09/24 10:02:29;;;;;;;5.87;5.33;;;;;;;22.79;50.91;100669.06;4999409;28;20435;-77
2021/09/24 10:04:54;;;;;;;6.85;5.22;;;;;;;22.90;50.29;100665.66;5011681;28;20401;-76
2021/09/24 10:07:28;;;;;;;5.90;4.87;;;;;;;23.31;48.12;100662.47;4994035;28;20417;-76
2021/09/24 10:10:14;;;;;;;5.13;4.55;;;;;;;23.87;47.49;100658.72;5011692;28;20880;-76
2021/09/24 10:12:41;;;;;;;5.85;4.40;;;;;;;24.20;46.29;100662.56;4998801;28;20414;-77
2021/09/24 10:15:09;;;;;;;6.22;4.40;;;;;;;24.61;45.59;100659.13;4991065;28;20424;-76
2021/09/24 10:17:35;;;;;;;4.70;4.30;;;;;;;24.73;45.78;100670.31;5008807;28;20406;-77
2021/09/24 10:20:02;;;;;;;5.47;4.18;;;;;;;25.12;44.91;100658.06;5011444;28;20396;-76
2021/09/24 10:22:27;;;;;;;4.63;4.28;;;;;;;25.68;43.43;100664.97;5003745;28;20407;-77
2021/09/24 10:24:55;;;;;;;4.70;4.10;;;;;;;26.05;42.27;100663.09;5017114;28;20397;-76
2021/09/24 10:27:27;;;;;;;5.53;4.40;;;;;;;26.30;41.01;100656.47;5011079;28;21011;-77
2021/09/24 10:29:54;;;;;;;5.25;4.75;;;;;;;26.61;40.41;100657.91;5002686;28;20922;-76
2021/09/24 10:32:27;;;;;;;4.60;4.10;;;;;;;26.63;40.19;100663.91;5013392;28;20459;-77
2021/09/24 10:35:04;;;;;;;5.10;4.53;;;;;;;26.77;39.18;100662.38;5009440;28;20919;-76
2021/09/24 10:37:32;;;;;;;4.35;4.05;;;;;;;27.17;38.66;100659.69;5005438;28;20454;-76
2021/09/24 10:40:00;;;;;;;7.20;4.22;;;;;;;27.50;37.17;100656.72;5007709;28;20467;-77
2021/09/24 10:42:27;;;;;;;4.43;4.13;;;;;;;27.07;38.52;100657.41;5009694;28;20423;-77
2021/09/24 10:45:01;;;;;;;4.35;4.00;;;;;;;27.09;38.97;100651.50;5009324;28;20442;-77
2021/09/24 10:47:50;;;;;;;4.82;4.03;;;;;;;27.25;38.45;100655.97;5009237;28;20413;-78
2021/09/24 10:50:31;;;;;;;4.82;4.10;;;;;;;27.16;38.47;100655.31;4998760;28;20418;-77
2021/09/24 10:55:53;;;;;;;4.40;4.10;;;;;;;27.32;38.13;100642.28;5010926;28;20412;-76
2021/09/24 10:58:27;;;;;;;5.78;3.85;;;;;;;27.31;37.90;100635.09;5010700;28;20471;-77
2021/09/24 11:01:11;;;;;;;4.50;4.00;;;;;;;27.55;37.18;100636.19;5019312;28;20445;-77
2021/09/24 11:03:53;;;;;;;4.53;3.60;;;;;;;27.76;37.03;100629.25;5011358;28;20397;-77
2021/09/24 11:06:46;;;;;;;3.63;3.42;;;;;;;27.83;36.62;100631.41;5001809;28;20463;-76
2021/09/24 11:09:17;;;;;;;4.70;4.40;;;;;;;27.67;37.26;100620.25;5003572;28;20413;-77
2021/09/24 11:11:45;;;;;;;4.57;4.18;;;;;;;27.71;36.80;100623.94;5010698;28;20496;-77
2021/09/24 11:14:23;;;;;;;4.00;3.70;;;;;;;27.86;36.38;100624.34;4982193;28;20419;-77
2021/09/24 11:16:48;;;;;;;3.88;3.47;;;;;;;28.37;35.24;100617.75;5013192;28;20491;-76
2021/09/24 11:19:33;;;;;;;4.03;3.77;;;;;;;29.06;34.29;100616.19;5009316;28;20501;-77
2021/09/24 11:21:59;;;;;;;4.20;3.90;;;;;;;29.13;33.76;100616.34;5013940;28;20407;-76